Time;durP1;ratioP1;P1;durP2;ratioP2;P2;SDS_P1;SDS_P2;PMS_P1;PMS_P2;Temp;Humidity;BMP_temperature;BMP_pressure;BME280_temperature;BME280_humidity;BME280_pressure;Samples;Min_cycle;Max_cycle;Signal;HPM_P1;HPM_P2
2022/11/19 00:01:20;;;;;;;3.47;1.67;;;2.70;99.90;;;;;;5075709;28;20198;-90
2022/11/19 00:03:47;;;;;;;0.80;0.80;;;2.70;99.90;;;;;;5057793;28;20316;-88
2022/11/19 00:06:16;;;;;;;0.70;0.70;;;2.70;99.90;;;;;;5074571;28;20217;-91
2022/11/19 00:08:42;;;;;;;0.83;0.77;;;2.70;99.90;;;;;;5058522;28;20233;-91
2022/11/19 00:12:53;;;;;;;0.60;0.60;;;2.60;99.90;;;;;;5056270;28;20220;-91
2022/11/19 00:14:03;;;;;;;0.40;0.40;;;2.60;99.90;;;;;;5056978;28;20597;-89
2022/11/19 00:16:28;;;;;;;0.50;0.50;;;2.70;99.90;;;;;;5060131;28;21178;-91
2022/11/19 00:18:54;;;;;;;1.67;1.57;;;2.60;99.90;;;;;;5058097;28;20202;-89
2022/11/19 00:21:20;;;;;;;0.50;0.50;;;2.60;99.90;;;;;;5057109;28;20257;-92
2022/11/19 00:23:45;;;;;;;0.50;0.50;;;2.60;99.90;;;;;;5041135;28;20221;-91
2022/11/19 00:26:13;;;;;;;2.83;1.23;;;2.60;99.90;;;;;;5058265;28;20221;-89
2022/11/19 00:28:40;;;;;;;0.87;0.83;;;2.60;99.90;;;;;;5058440;28;20181;-92
2022/11/19 00:31:10;;;;;;;0.93;0.93;;;2.60;99.90;;;;;;5056975;28;20549;-90
2022/11/19 00:33:37;;;;;;;1.23;0.70;;;2.50;99.90;;;;;;5058609;28;20232;-88
2022/11/19 00:36:05;;;;;;;0.67;0.67;;;2.50;99.90;;;;;;5058500;28;20755;-90
2022/11/19 00:38:31;;;;;;;0.67;0.67;;;2.50;99.90;;;;;;5040435;28;20234;-90
2022/11/19 00:40:57;;;;;;;0.67;0.67;;;2.50;99.90;;;;;;5057252;28;20556;-93
2022/11/19 00:46:08;;;;;;;0.67;0.67;;;2.40;99.90;;;;;;5058994;28;20185;-93
2022/11/19 00:48:34;;;;;;;0.50;0.50;;;2.30;99.90;;;;;;5059400;28;20229;-91
2022/11/19 00:50:59;;;;;;;0.60;0.60;;;2.30;99.90;;;;;;5058242;28;20573;-92
2022/11/19 00:53:25;;;;;;;3.60;0.50;;;2.20;99.90;;;;;;5074403;28;20213;-93
2022/11/19 00:55:51;;;;;;;0.57;0.43;;;2.20;99.90;;;;;;5058826;28;20991;-93
2022/11/19 00:58:18;;;;;;;1.43;1.20;;;2.20;99.90;;;;;;5058381;28;20248;-92
2022/11/19 01:00:44;;;;;;;0.30;0.30;;;2.20;99.90;;;;;;5041694;28;20231;-92
2022/11/19 01:03:10;;;;;;;0.40;0.40;;;2.10;99.90;;;;;;5056673;28;20227;-90
2022/11/19 01:05:36;;;;;;;0.57;0.57;;;2.10;99.90;;;;;;5074268;28;20621;-91
2022/11/19 01:08:01;;;;;;;1.03;1.03;;;2.10;99.90;;;;;;5073881;28;20701;-91
2022/11/19 01:10:27;;;;;;;1.40;0.60;;;2.10;99.90;;;;;;5056082;28;20186;-92
2022/11/19 01:15:37;;;;;;;0.60;0.60;;;2.00;99.90;;;;;;5057375;28;20591;-90
2022/11/19 01:18:03;;;;;;;1.20;0.77;;;1.90;99.90;;;;;;5055042;28;20277;-92
2022/11/19 01:20:28;;;;;;;2.47;1.27;;;1.90;99.90;;;;;;5056605;28;20329;-91
2022/11/19 01:22:54;;;;;;;1.63;1.20;;;1.80;99.90;;;;;;5056700;28;20246;-91
2022/11/19 01:25:20;;;;;;;0.70;0.70;;;1.70;99.90;;;;;;5057544;28;20635;-93
2022/11/19 01:27:45;;;;;;;1.70;1.60;;;1.70;99.90;;;;;;5057081;28;20296;-91
2022/11/19 01:30:11;;;;;;;0.30;0.30;;;1.60;99.90;;;;;;5057283;28;20222;-92
2022/11/19 01:32:38;;;;;;;0.70;0.70;;;1.40;99.90;;;;;;5056509;28;20675;-92
2022/11/19 01:35:04;;;;;;;0.87;0.87;;;1.40;99.90;;;;;;5039442;28;20224;-90
2022/11/19 01:37:30;;;;;;;0.73;0.70;;;1.30;99.90;;;;;;5057220;28;20233;-92
2022/11/19 01:39:56;;;;;;;0.60;0.50;;;1.30;99.90;;;;;;5058603;28;20968;-90
2022/11/19 01:45:21;;;;;;;0.87;0.87;;;1.30;99.90;;;;;;5057918;28;20213;-92
2022/11/19 01:47:47;;;;;;;1.13;1.07;;;1.30;99.90;;;;;;5073612;28;20307;-92
2022/11/19 01:50:13;;;;;;;0.67;0.40;;;1.20;99.90;;;;;;5059275;28;20319;-91
2022/11/19 01:52:39;;;;;;;0.30;0.30;;;1.20;99.90;;;;;;5072979;28;20647;-91
2022/11/19 01:55:06;;;;;;;0.73;0.73;;;1.20;99.90;;;;;;5057163;28;20181;-92
2022/11/19 01:57:34;;;;;;;0.60;0.60;;;1.20;99.90;;;;;;5056792;28;20232;-89
2022/11/19 01:59:59;;;;;;;0.57;0.53;;;1.20;99.90;;;;;;5054897;28;20222;-90
2022/11/19 02:02:25;;;;;;;1.07;1.07;;;1.20;99.90;;;;;;5057851;28;20248;-91
2022/11/19 02:04:52;;;;;;;1.50;1.00;;;1.20;99.90;;;;;;5040029;28;20213;-91
2022/11/19 02:07:23;;;;;;;0.73;0.73;;;1.20;99.90;;;;;;5074063;28;20272;-92
2022/11/19 02:09:49;;;;;;;0.73;0.73;;;1.20;99.90;;;;;;5073902;28;20210;-92
2022/11/19 02:12:41;;;;;;;0.80;0.80;;;1.20;99.90;;;;;;5056807;28;20282;-91
2022/11/19 02:15:10;;;;;;;1.33;1.33;;;1.20;99.90;;;;;;5073177;28;20712;-91
2022/11/19 02:18:04;;;;;;;0.50;0.50;;;1.20;99.90;;;;;;5058009;28;20260;-92
2022/11/19 02:20:54;;;;;;;1.33;1.23;;;1.20;99.90;;;;;;5074154;28;20217;-92
2022/11/19 02:24:00;;;;;;;1.07;0.87;;;1.30;99.90;;;;;;5056805;28;20461;-91
2022/11/19 02:27:05;;;;;;;0.80;0.77;;;1.30;99.90;;;;;;5055260;28;20298;-92
2022/11/19 02:29:31;;;;;;;0.47;0.47;;;1.30;99.90;;;;;;5050043;28;20612;-91
2022/11/19 02:32:15;;;;;;;0.60;0.60;;;1.20;99.90;;;;;;5054375;28;20221;-92
2022/11/19 02:35:02;;;;;;;0.77;0.77;;;1.20;99.90;;;;;;5057212;28;20181;-89
2022/11/19 02:37:31;;;;;;;0.30;0.30;;;1.20;99.90;;;;;;5070317;28;20232;-92
2022/11/19 02:40:06;;;;;;;3.30;0.93;;;1.10;99.90;;;;;;5055261;28;20276;-92
2022/11/19 02:43:03;;;;;;;0.53;0.53;;;1.00;99.90;;;;;;5055706;28;20622;-93
2022/11/19 02:45:40;;;;;;;0.30;0.30;;;1.00;99.90;;;;;;5071101;28;20212;-93
2022/11/19 02:48:16;;;;;;;0.73;0.73;;;1.00;99.90;;;;;;5055869;28;20221;-93
2022/11/19 02:50:46;;;;;;;0.27;0.27;;;1.00;99.90;;;;;;5073690;28;20805;-90
2022/11/19 02:53:11;;;;;;;0.77;0.77;;;1.00;99.90;;;;;;5072491;28;20347;-93
2022/11/19 02:55:38;;;;;;;1.30;0.50;;;0.90;99.90;;;;;;5038427;28;20281;-92
2022/11/19 03:06:35;;;;;;;0.30;0.30;;;0.80;99.90;;;;;;5042488;28;20221;-92
2022/11/19 03:09:01;;;;;;;2.37;1.70;;;0.80;99.90;;;;;;5056319;28;20264;-92
2022/11/19 03:11:29;;;;;;;0.63;0.63;;;0.80;99.90;;;;;;5057832;28;20226;-92
2022/11/19 03:17:29;;;;;;;1.10;1.00;;;0.80;99.90;;;;;;5056766;28;20233;-93
2022/11/19 03:20:19;;;;;;;0.30;0.30;;;0.80;99.90;;;;;;5070914;28;20687;-93
2022/11/19 03:22:52;;;;;;;0.37;0.37;;;0.70;99.90;;;;;;5058698;28;20233;-91
2022/11/19 03:25:29;;;;;;;0.77;0.77;;;0.60;99.90;;;;;;5076358;28;20956;-93
2022/11/19 03:28:01;;;;;;;0.40;0.40;;;0.50;99.90;;;;;;5059816;28;20231;-91
2022/11/19 03:30:29;;;;;;;0.57;0.50;;;0.50;99.90;;;;;;5073726;28;20448;-92
2022/11/19 03:33:09;;;;;;;0.80;0.80;;;0.50;99.90;;;;;;5057646;28;20221;-93
2022/11/19 03:35:47;;;;;;;0.30;0.30;;;0.40;99.90;;;;;;5058073;28;20299;-90
2022/11/19 03:38:19;;;;;;;1.47;1.37;;;0.40;99.90;;;;;;5077967;28;20221;-91
2022/11/19 03:40:46;;;;;;;0.50;0.50;;;0.40;99.90;;;;;;5058919;28;20262;-92
2022/11/19 03:43:16;;;;;;;0.70;0.70;;;0.40;99.90;;;;;;5059223;28;20196;-91
2022/11/19 03:45:44;;;;;;;0.57;0.57;;;0.40;99.90;;;;;;5074105;28;20681;-91
2022/11/19 03:48:15;;;;;;;1.13;1.03;;;0.40;99.90;;;;;;5060472;28;20217;-92
2022/11/19 03:50:44;;;;;;;0.80;0.80;;;0.40;99.90;;;;;;5061560;28;20225;-91
2022/11/19 03:53:10;;;;;;;0.20;0.20;;;0.40;99.90;;;;;;5077553;28;20690;-88
2022/11/19 03:55:46;;;;;;;1.33;0.70;;;0.30;99.90;;;;;;5074971;28;20205;-90
2022/11/19 03:58:12;;;;;;;0.70;0.70;;;0.30;99.90;;;;;;5059974;28;20267;-93
2022/11/19 04:00:38;;;;;;;0.97;0.97;;;0.40;99.90;;;;;;5058981;28;20721;-92
2022/11/19 04:03:04;;;;;;;0.20;0.20;;;0.30;99.90;;;;;;5059575;28;20620;-92
2022/11/19 04:05:29;;;;;;;0.57;0.47;;;0.40;99.90;;;;;;5060267;28;20225;-91
2022/11/19 04:07:55;;;;;;;1.50;0.63;;;0.40;99.90;;;;;;5076840;28;20228;-93
2022/11/19 04:10:21;;;;;;;0.77;0.77;;;0.30;99.90;;;;;;5043009;28;20190;-91
2022/11/19 04:12:47;;;;;;;1.23;1.13;;;0.40;99.90;;;;;;5076658;28;20276;-91
2022/11/19 04:15:13;;;;;;;0.63;0.63;;;0.40;99.90;;;;;;5057268;28;20274;-91
2022/11/19 04:17:39;;;;;;;1.10;0.93;;;0.30;99.90;;;;;;5058382;28;20438;-91
2022/11/19 04:20:07;;;;;;;1.50;1.17;;;0.30;99.90;;;;;;5058675;28;20240;-92
2022/11/19 04:22:33;;;;;;;0.43;0.43;;;0.30;99.90;;;;;;5058007;28;20185;-91
2022/11/19 04:24:59;;;;;;;0.43;0.43;;;0.30;99.90;;;;;;5075380;28;20188;-90
2022/11/19 04:27:24;;;;;;;0.40;0.40;;;0.30;99.90;;;;;;5073948;28;20225;-92
2022/11/19 04:29:50;;;;;;;0.80;0.80;;;0.30;99.90;;;;;;5056387;28;20679;-90
2022/11/19 04:32:16;;;;;;;0.70;0.70;;;0.30;99.90;;;;;;5058195;28;20296;-92
2022/11/19 04:34:41;;;;;;;3.53;1.07;;;0.30;99.90;;;;;;5042031;28;20200;-91
2022/11/19 04:37:07;;;;;;;0.53;0.53;;;0.30;99.90;;;;;;5058562;28;20222;-91
2022/11/19 04:39:33;;;;;;;0.50;0.50;;;0.30;99.90;;;;;;5056852;28;20229;-94
2022/11/19 04:41:59;;;;;;;0.67;0.67;;;0.30;99.90;;;;;;5074525;28;20217;-92
2022/11/19 04:44:24;;;;;;;1.27;1.17;;;0.30;99.90;;;;;;5056259;28;21127;-92
2022/11/19 04:46:50;;;;;;;1.13;1.13;;;0.20;99.90;;;;;;5074852;28;20350;-90
2022/11/19 04:49:16;;;;;;;0.67;0.67;;;0.20;99.90;;;;;;5058821;28;20219;-88
2022/11/19 04:51:42;;;;;;;0.40;0.40;;;0.20;99.90;;;;;;5058459;28;20894;-92
2022/11/19 04:54:08;;;;;;;0.53;0.53;;;0.20;99.90;;;;;;5059956;28;20539;-90
2022/11/19 04:56:34;;;;;;;0.70;0.50;;;0.20;99.90;;;;;;5055440;28;20303;-91
2022/11/19 04:59:00;;;;;;;0.20;0.20;;;0.20;99.90;;;;;;5073830;28;20257;-90
2022/11/19 05:01:26;;;;;;;0.50;0.50;;;0.10;99.90;;;;;;5075382;28;20275;-91
2022/11/19 05:03:51;;;;;;;1.43;1.43;;;0.10;99.90;;;;;;5057444;28;20262;-91
2022/11/19 05:06:17;;;;;;;0.60;0.60;;;0.10;99.90;;;;;;5073627;28;20275;-92
2022/11/19 05:08:43;;;;;;;0.50;0.50;;;0.10;99.90;;;;;;5072772;28;20225;-92
2022/11/19 05:11:09;;;;;;;0.53;0.53;;;0.10;99.90;;;;;;5058802;28;20294;-92
2022/11/19 05:13:35;;;;;;;0.80;0.80;;;0.10;99.90;;;;;;5056129;28;20269;-91
2022/11/19 05:16:00;;;;;;;0.57;0.57;;;0.00;99.90;;;;;;5056869;28;20202;-93
2022/11/19 05:18:26;;;;;;;0.97;0.63;;;0.10;99.90;;;;;;5057481;28;20234;-90
2022/11/19 05:20:52;;;;;;;0.40;0.40;;;0.10;99.90;;;;;;5074688;28;20229;-92
2022/11/19 05:23:18;;;;;;;1.00;0.97;;;0.00;99.90;;;;;;5074972;28;20217;-94
2022/11/19 05:25:43;;;;;;;0.73;0.73;;;0.00;99.90;;;;;;5073625;28;20222;-93
2022/11/19 05:28:09;;;;;;;0.77;0.77;;;0.00;99.90;;;;;;5073756;28;20193;-92
2022/11/19 05:30:35;;;;;;;1.30;1.30;;;0.00;99.90;;;;;;5056612;28;20279;-90
2022/11/19 05:33:00;;;;;;;0.40;0.40;;;-0.10;99.90;;;;;;5058786;28;20247;-93
2022/11/19 05:35:26;;;;;;;1.03;1.03;;;-0.10;99.90;;;;;;5057757;28;20220;-92
2022/11/19 05:37:52;;;;;;;0.33;0.33;;;-0.10;99.90;;;;;;5054870;28;20253;-90
2022/11/19 05:40:18;;;;;;;0.90;0.90;;;0.00;99.90;;;;;;5057045;28;20219;-93
2022/11/19 05:42:43;;;;;;;0.67;0.67;;;-0.10;99.90;;;;;;5074552;28;20264;-90
2022/11/19 05:45:10;;;;;;;1.13;1.13;;;0.00;99.90;;;;;;5057117;28;20224;-93
2022/11/19 05:47:35;;;;;;;0.90;0.90;;;0.00;99.90;;;;;;5073494;28;20222;-92
2022/11/19 05:50:02;;;;;;;0.60;0.60;;;-0.10;99.90;;;;;;5073156;28;20226;-92
2022/11/19 05:52:28;;;;;;;0.80;0.80;;;-0.10;99.90;;;;;;5058343;28;20258;-93
2022/11/19 05:54:53;;;;;;;0.90;0.90;;;-0.10;99.90;;;;;;5058830;28;20956;-91
2022/11/19 05:57:19;;;;;;;0.53;0.53;;;-0.10;99.90;;;;;;5074431;28;20244;-92
2022/11/19 05:59:45;;;;;;;0.50;0.50;;;-0.10;99.90;;;;;;5072822;28;20781;-92
2022/11/19 06:02:11;;;;;;;0.20;0.20;;;-0.20;99.90;;;;;;5057003;28;20259;-92
2022/11/19 06:04:36;;;;;;;1.93;1.07;;;-0.20;99.90;;;;;;5073179;28;20194;-91
2022/11/19 06:07:03;;;;;;;0.50;0.50;;;-0.10;99.90;;;;;;5075113;28;20239;-93
2022/11/19 06:09:28;;;;;;;0.50;0.50;;;-0.10;99.90;;;;;;5055944;28;20555;-92
2022/11/19 06:11:54;;;;;;;0.83;0.83;;;-0.10;99.90;;;;;;5055107;28;20218;-91
2022/11/19 06:14:23;;;;;;;2.07;1.80;;;-0.20;99.90;;;;;;5074297;28;20256;-91
2022/11/19 06:16:54;;;;;;;1.37;1.37;;;-0.20;99.90;;;;;;5072540;28;20720;-90
2022/11/19 06:19:20;;;;;;;0.30;0.30;;;-0.30;99.90;;;;;;5057615;28;20214;-91
2022/11/19 06:21:46;;;;;;;0.70;0.70;;;-0.30;99.90;;;;;;5056204;28;20225;-92
2022/11/19 06:24:11;;;;;;;0.87;0.87;;;-0.40;99.90;;;;;;5055672;28;21034;-91
2022/11/19 06:26:38;;;;;;;0.30;0.30;;;-0.40;99.90;;;;;;5056972;28;20244;-93
2022/11/19 06:29:04;;;;;;;0.90;0.83;;;-0.40;99.90;;;;;;5056354;28;20317;-92
2022/11/19 06:31:30;;;;;;;0.70;0.70;;;-0.40;99.90;;;;;;5056128;28;20189;-89
2022/11/19 06:33:56;;;;;;;0.33;0.33;;;-0.40;99.90;;;;;;5056699;28;20190;-91
2022/11/19 06:36:22;;;;;;;0.70;0.70;;;-0.40;99.90;;;;;;5055543;28;20214;-93
2022/11/19 06:38:48;;;;;;;0.40;0.40;;;-0.40;99.90;;;;;;5054547;28;20685;-92
2022/11/19 06:41:14;;;;;;;1.00;1.00;;;-0.40;99.90;;;;;;5056377;28;20245;-93
2022/11/19 06:43:40;;;;;;;0.30;0.30;;;-0.40;99.90;;;;;;5057398;28;20542;-89
2022/11/19 06:46:06;;;;;;;0.27;0.27;;;-0.40;99.90;;;;;;5074420;28;20276;-92
2022/11/19 06:48:31;;;;;;;1.67;1.57;;;-0.50;99.90;;;;;;5055240;28;20698;-93
2022/11/19 06:50:57;;;;;;;0.70;0.70;;;-0.50;99.90;;;;;;5053192;28;20309;-90
2022/11/19 06:53:23;;;;;;;0.73;0.73;;;-0.50;99.90;;;;;;5053591;28;20245;-91
2022/11/19 06:55:55;;;;;;;0.40;0.40;;;-0.50;99.90;;;;;;5052025;28;20304;-87
2022/11/19 06:58:21;;;;;;;1.53;1.33;;;-0.50;99.90;;;;;;5052536;28;20241;-90
2022/11/19 07:00:47;;;;;;;0.93;0.93;;;-0.50;99.90;;;;;;5052584;28;20703;-89
2022/11/19 07:03:12;;;;;;;0.33;0.33;;;-0.50;99.90;;;;;;5051800;28;20217;-91
2022/11/19 07:05:38;;;;;;;0.70;0.70;;;-0.40;99.90;;;;;;5051859;28;20226;-90
2022/11/19 07:08:04;;;;;;;0.70;0.70;;;-0.50;99.90;;;;;;5052368;28;20214;-91
2022/11/19 07:10:32;;;;;;;1.23;1.07;;;-0.40;99.90;;;;;;5056803;28;20828;-92
2022/11/19 07:12:57;;;;;;;0.60;0.60;;;-0.30;99.90;;;;;;5074017;28;20283;-89
2022/11/19 07:15:23;;;;;;;0.87;0.87;;;-0.30;99.90;;;;;;5052814;28;20817;-93
2022/11/19 07:17:49;;;;;;;0.60;0.60;;;-0.10;99.90;;;;;;5055115;28;20226;-91
2022/11/19 07:20:15;;;;;;;2.43;1.60;;;0.10;99.90;;;;;;5055743;28;20220;-91
2022/11/19 07:22:41;;;;;;;0.70;0.63;;;0.20;99.90;;;;;;5071035;28;20232;-91
2022/11/19 07:25:08;;;;;;;2.83;1.03;;;0.00;99.90;;;;;;5072226;28;20229;-91
2022/11/19 07:27:34;;;;;;;1.70;0.93;;;-0.10;99.90;;;;;;5066198;28;20225;-91
2022/11/19 07:30:01;;;;;;;0.40;0.40;;;0.00;99.90;;;;;;5060887;28;20267;-92
2022/11/19 07:32:26;;;;;;;2.03;1.90;;;0.10;99.90;;;;;;5053261;28;20213;-91
2022/11/19 07:34:52;;;;;;;0.50;0.50;;;0.20;99.90;;;;;;5057675;28;20221;-92
2022/11/19 07:37:18;;;;;;;0.30;0.30;;;0.30;99.90;;;;;;5057840;28;20224;-91
2022/11/19 07:39:45;;;;;;;0.30;0.30;;;0.60;99.90;;;;;;5061379;28;20218;-92
2022/11/19 07:44:56;;;;;;;0.50;0.50;;;1.00;99.90;;;;;;5059559;28;20674;-94
2022/11/19 07:47:21;;;;;;;0.60;0.60;;;1.40;99.90;;;;;;5055837;28;20228;-92
2022/11/19 07:49:47;;;;;;;0.93;0.93;;;1.50;99.90;;;;;;5072932;28;20227;-94
2022/11/19 07:52:13;;;;;;;0.80;0.80;;;1.80;99.90;;;;;;5054051;28;21084;-92
2022/11/19 07:54:38;;;;;;;1.50;1.40;;;2.00;99.90;;;;;;5073153;28;20229;-94
2022/11/19 07:57:04;;;;;;;0.70;0.70;;;2.10;99.90;;;;;;5054668;28;20390;-92
2022/11/19 07:59:30;;;;;;;2.07;1.97;;;1.80;99.90;;;;;;5056232;28;20621;-93
2022/11/19 08:01:55;;;;;;;0.53;0.53;;;1.20;99.90;;;;;;5055708;28;21029;-92
2022/11/19 08:04:21;;;;;;;1.90;1.77;;;0.80;99.90;;;;;;5057386;28;20292;-93
2022/11/19 08:06:47;;;;;;;1.37;1.37;;;0.50;99.90;;;;;;5059430;28;20217;-92
2022/11/19 08:09:13;;;;;;;0.47;0.47;;;0.50;99.90;;;;;;5053320;28;20701;-92
2022/11/19 08:11:39;;;;;;;0.77;0.77;;;0.30;99.90;;;;;;5059223;28;20277;-91
2022/11/19 08:14:05;;;;;;;1.03;1.03;;;0.30;99.90;;;;;;5059620;28;20209;-93
2022/11/19 08:19:17;;;;;;;0.37;0.37;;;0.30;99.90;;;;;;5058870;28;20276;-92
2022/11/19 08:21:45;;;;;;;1.70;1.00;;;0.30;99.90;;;;;;5058853;28;20308;-92
2022/11/19 08:24:11;;;;;;;0.60;0.60;;;0.30;99.90;;;;;;5062254;28;20244;-90
2022/11/19 08:26:37;;;;;;;1.63;0.80;;;0.40;99.90;;;;;;5061486;28;20209;-94
2022/11/19 08:29:04;;;;;;;0.50;0.50;;;0.40;99.90;;;;;;5060487;28;21002;-91
2022/11/19 08:31:30;;;;;;;0.67;0.67;;;0.40;99.90;;;;;;5079583;28;20186;-92
2022/11/19 08:33:56;;;;;;;1.03;0.87;;;0.40;99.90;;;;;;5061456;28;20220;-93
2022/11/19 08:36:22;;;;;;;0.47;0.47;;;0.50;99.90;;;;;;5074593;28;20244;-93
2022/11/19 08:38:48;;;;;;;0.40;0.40;;;0.60;99.90;;;;;;5060152;28;20749;-93
2022/11/19 08:44:01;;;;;;;3.53;1.93;;;0.60;99.90;;;;;;5059437;28;20206;-93
2022/11/19 08:46:27;;;;;;;0.60;0.60;;;0.70;99.90;;;;;;5073436;28;20174;-94
2022/11/19 08:48:53;;;;;;;0.67;0.67;;;0.70;99.90;;;;;;5061008;28;20211;-91
2022/11/19 08:51:19;;;;;;;0.50;0.50;;;0.70;99.90;;;;;;5057757;28;20221;-95
2022/11/19 08:53:44;;;;;;;0.73;0.60;;;0.80;99.90;;;;;;5078109;28;20214;-93
2022/11/19 08:56:10;;;;;;;0.67;0.67;;;0.80;99.90;;;;;;5062948;28;20236;-94
2022/11/19 08:58:36;;;;;;;1.60;0.53;;;0.80;99.90;;;;;;5061155;28;20248;-94
2022/11/19 09:01:12;;;;;;;0.83;0.83;;;0.80;99.90;;;;;;5076279;28;20879;-93
2022/11/19 09:03:38;;;;;;;0.30;0.30;;;0.90;99.90;;;;;;5058694;28;20245;-93
2022/11/19 09:06:05;;;;;;;1.23;0.60;;;1.00;99.90;;;;;;5058343;28;20684;-94
2022/11/19 09:08:31;;;;;;;0.67;0.67;;;1.00;99.90;;;;;;5059927;28;20229;-94
2022/11/19 09:10:57;;;;;;;1.37;1.37;;;1.10;99.90;;;;;;5057324;28;20258;-90
2022/11/19 09:13:23;;;;;;;0.50;0.50;;;1.10;99.90;;;;;;5058859;28;20663;-90
2022/11/19 09:15:49;;;;;;;1.40;1.17;;;1.20;99.90;;;;;;5073392;28;20225;-91
2022/11/19 09:18:15;;;;;;;0.63;0.63;;;1.20;99.90;;;;;;5056960;28;20245;-90
2022/11/19 09:20:41;;;;;;;0.60;0.60;;;1.30;99.90;;;;;;5056318;28;20222;-91
2022/11/19 09:23:06;;;;;;;1.07;1.07;;;1.30;99.90;;;;;;5073584;28;20222;-89
2022/11/19 09:25:32;;;;;;;1.83;1.70;;;1.30;99.90;;;;;;5055954;28;20271;-91
2022/11/19 09:27:58;;;;;;;1.03;1.00;;;1.40;99.90;;;;;;5059568;28;20224;-90
2022/11/19 09:30:24;;;;;;;0.60;0.60;;;1.50;99.90;;;;;;5074012;28;20702;-89
2022/11/19 09:32:50;;;;;;;0.60;0.60;;;1.50;99.90;;;;;;5056235;28;20232;-89
2022/11/19 09:35:16;;;;;;;0.60;0.60;;;1.60;99.90;;;;;;5056884;28;20599;-89
2022/11/19 09:37:41;;;;;;;0.50;0.50;;;1.60;99.90;;;;;;5056942;28;20270;-90
2022/11/19 09:40:16;;;;;;;2.00;1.53;;;1.60;99.90;;;;;;5057389;28;20239;-92
2022/11/19 09:43:15;;;;;;;0.80;0.80;;;1.70;99.90;;;;;;5052256;28;20336;-91
2022/11/19 09:46:14;;;;;;;0.50;0.50;;;1.70;99.90;;;;;;5073360;28;21124;-89
2022/11/19 09:48:40;;;;;;;0.93;0.93;;;1.70;99.90;;;;;;5058743;28;20229;-90
2022/11/19 09:51:13;;;;;;;0.50;0.50;;;1.80;99.90;;;;;;5073534;28;20221;-89
2022/11/19 09:54:04;;;;;;;2.00;1.90;;;1.90;99.90;;;;;;5055885;28;20224;-91
2022/11/19 09:56:37;;;;;;;0.77;0.77;;;1.90;99.90;;;;;;5055904;28;20249;-90
2022/11/19 09:59:12;;;;;;;0.60;0.60;;;2.00;99.90;;;;;;5072739;28;20263;-92
2022/11/19 10:01:38;;;;;;;0.40;0.40;;;2.00;99.90;;;;;;5074680;28;20643;-93
2022/11/19 10:04:04;;;;;;;0.40;0.40;;;2.00;99.90;;;;;;5060304;28;20177;-94
2022/11/19 10:06:52;;;;;;;0.60;0.60;;;2.00;99.90;;;;;;5073302;28;20214;-94
2022/11/19 10:09:45;;;;;;;2.93;2.23;;;2.00;99.90;;;;;;5071697;28;20216;-94
2022/11/19 10:12:42;;;;;;;1.30;1.20;;;2.10;99.90;;;;;;5058159;28;20286;-93
2022/11/19 10:15:11;;;;;;;1.40;1.30;;;2.20;99.90;;;;;;5077753;28;20699;-90
2022/11/19 10:17:52;;;;;;;0.93;0.93;;;2.20;99.90;;;;;;5057181;28;20225;-94
2022/11/19 10:20:30;;;;;;;1.23;1.07;;;2.30;99.90;;;;;;5072096;28;20252;-91
2022/11/19 10:23:07;;;;;;;0.90;0.90;;;2.30;99.90;;;;;;5057319;28;20214;-92
2022/11/19 10:25:38;;;;;;;0.60;0.60;;;2.30;99.90;;;;;;5055987;28;20188;-93
2022/11/19 10:28:26;;;;;;;0.70;0.70;;;2.40;99.90;;;;;;5058030;28;20194;-92
2022/11/19 10:31:03;;;;;;;1.50;1.17;;;2.50;99.90;;;;;;5056854;28;20232;-92
2022/11/19 10:33:42;;;;;;;0.97;0.97;;;2.60;99.90;;;;;;5056183;28;20245;-89
2022/11/19 10:36:38;;;;;;;0.50;0.50;;;2.60;99.90;;;;;;5055199;28;20217;-89
2022/11/19 10:39:19;;;;;;;1.27;0.80;;;2.70;99.90;;;;;;5054519;28;20229;-90
2022/11/19 10:42:06;;;;;;;0.43;0.43;;;2.70;99.90;;;;;;5072507;28;20244;-89
2022/11/19 10:44:43;;;;;;;1.37;1.13;;;2.80;99.90;;;;;;5058780;28;20266;-93
2022/11/19 10:47:21;;;;;;;0.97;0.97;;;2.90;99.90;;;;;;5056164;28;20218;-91
2022/11/19 10:49:53;;;;;;;0.50;0.50;;;2.90;99.90;;;;;;5059406;28;20256;-91
2022/11/19 10:52:35;;;;;;;0.50;0.50;;;2.90;99.90;;;;;;5073652;28;20235;-93
2022/11/19 10:55:23;;;;;;;2.27;1.13;;;3.10;99.90;;;;;;5057392;28;20222;-91
2022/11/19 10:57:53;;;;;;;0.53;0.53;;;3.10;99.90;;;;;;5054957;28;20305;-92
2022/11/19 11:00:19;;;;;;;1.33;1.23;;;3.20;99.90;;;;;;5071429;28;20233;-93
2022/11/19 11:02:50;;;;;;;1.10;1.10;;;3.30;99.90;;;;;;5073097;28;20693;-92
2022/11/19 11:05:17;;;;;;;0.80;0.80;;;3.20;99.90;;;;;;5056973;28;20253;-92
2022/11/19 11:07:44;;;;;;;1.17;1.07;;;3.20;99.90;;;;;;5072386;28;20367;-93
2022/11/19 11:10:25;;;;;;;1.17;1.17;;;3.20;99.90;;;;;;5075174;28;20217;-91
2022/11/19 11:15:44;;;;;;;0.60;0.60;;;3.20;99.90;;;;;;5057130;28;20221;-93
2022/11/19 11:18:11;;;;;;;1.00;1.00;;;3.30;99.90;;;;;;5054430;28;20240;-93
2022/11/19 11:20:43;;;;;;;0.50;0.50;;;3.30;99.90;;;;;;5054435;28;20229;-91
2022/11/19 11:23:17;;;;;;;0.97;0.97;;;3.30;99.90;;;;;;5056383;28;21116;-92
2022/11/19 11:26:05;;;;;;;1.47;1.37;;;3.40;99.90;;;;;;5055230;28;20181;-94
2022/11/19 11:28:31;;;;;;;1.70;1.43;;;3.50;99.90;;;;;;5073664;28;20178;-92
2022/11/19 11:31:05;;;;;;;1.00;0.53;;;3.40;99.90;;;;;;5074953;28;20189;-92
2022/11/19 11:33:34;;;;;;;8.77;0.93;;;3.40;99.90;;;;;;5055229;28;20278;-93
2022/11/19 11:36:06;;;;;;;3.30;2.30;;;3.30;99.90;;;;;;5056890;28;20217;-91
2022/11/19 11:38:41;;;;;;;0.40;0.40;;;3.30;99.90;;;;;;5072383;28;20432;-94
2022/11/19 11:41:34;;;;;;;0.40;0.40;;;3.40;99.90;;;;;;5072260;28;20223;-94
2022/11/19 11:44:17;;;;;;;0.63;0.63;;;3.40;99.90;;;;;;5055934;28;20779;-92
2022/11/19 11:46:47;;;;;;;1.03;0.87;;;3.50;99.90;;;;;;5073874;28;20225;-91
2022/11/19 11:49:32;;;;;;;2.40;2.27;;;3.40;99.90;;;;;;5059429;28;20190;-92
2022/11/19 11:52:00;;;;;;;1.10;1.10;;;3.50;99.90;;;;;;5057123;28;20945;-91
2022/11/19 11:54:26;;;;;;;0.63;0.63;;;3.50;99.90;;;;;;5059558;28;20214;-92
2022/11/19 11:56:52;;;;;;;1.20;1.10;;;3.50;99.90;;;;;;5059752;28;20278;-90
2022/11/19 11:59:25;;;;;;;1.70;1.57;;;3.50;99.90;;;;;;5076092;28;20312;-90
2022/11/19 12:02:04;;;;;;;0.60;0.60;;;3.60;99.90;;;;;;5060505;28;20244;-89
2022/11/19 12:04:30;;;;;;;1.40;1.40;;;3.40;99.90;;;;;;5057834;28;20406;-91
2022/11/19 12:07:26;;;;;;;1.50;1.40;;;3.40;99.90;;;;;;5075600;28;20673;-90
2022/11/19 12:10:34;;;;;;;1.10;1.00;;;3.50;99.90;;;;;;5057668;28;20344;-89
2022/11/19 12:13:21;;;;;;;1.03;1.03;;;3.60;99.90;;;;;;5030622;28;20222;-89
2022/11/19 12:16:21;;;;;;;0.70;0.70;;;3.60;99.90;;;;;;5060047;28;20220;-91
2022/11/19 12:19:05;;;;;;;0.73;0.73;;;3.60;99.90;;;;;;5074703;28;20343;-90
2022/11/19 12:22:14;;;;;;;1.03;1.03;;;3.60;99.90;;;;;;5074866;28;20267;-93
2022/11/19 12:25:14;;;;;;;0.83;0.83;;;3.70;99.90;;;;;;5073398;28;21216;-93
2022/11/19 12:28:00;;;;;;;0.50;0.50;;;3.80;99.90;;;;;;5079188;28;20236;-94
2022/11/19 12:30:43;;;;;;;1.43;1.43;;;3.70;99.90;;;;;;5073909;28;20229;-93
2022/11/19 12:33:29;;;;;;;0.40;0.40;;;3.70;99.90;;;;;;5058014;28;20666;-94
2022/11/19 12:36:30;;;;;;;2.37;2.27;;;3.90;99.90;;;;;;5060003;28;20810;-92
2022/11/19 12:39:18;;;;;;;1.30;1.23;;;4.00;99.90;;;;;;5059617;28;20706;-89
2022/11/19 12:41:52;;;;;;;1.07;1.07;;;4.10;99.90;;;;;;5059013;28;20214;-93
2022/11/19 12:44:40;;;;;;;0.50;0.50;;;4.20;99.90;;;;;;5061386;28;20835;-91
2022/11/19 12:47:06;;;;;;;1.87;1.70;;;4.20;99.90;;;;;;5074692;28;20218;-92
2022/11/19 12:49:46;;;;;;;0.77;0.77;;;4.10;99.90;;;;;;5073155;28;20190;-93
2022/11/19 12:52:40;;;;;;;0.83;0.60;;;4.10;99.90;;;;;;5074106;28;20272;-94
2022/11/19 12:55:18;;;;;;;2.60;1.13;;;4.10;99.90;;;;;;5059226;28;20206;-93
2022/11/19 12:57:55;;;;;;;0.53;0.50;;;4.20;99.90;;;;;;5072354;28;20236;-93
2022/11/19 13:00:24;;;;;;;3.00;1.63;;;4.20;99.90;;;;;;5075417;28;20224;-91
2022/11/19 13:03:11;;;;;;;0.70;0.70;;;4.20;99.90;;;;;;5059745;28;20225;-92
2022/11/19 13:05:45;;;;;;;1.10;0.73;;;4.10;99.90;;;;;;5056995;28;20625;-94
2022/11/19 13:08:29;;;;;;;0.87;0.87;;;4.20;99.90;;;;;;5073460;28;20225;-93
2022/11/19 13:10:57;;;;;;;1.90;1.20;;;4.10;99.90;;;;;;5072102;28;20222;-94
2022/11/19 13:13:28;;;;;;;0.40;0.40;;;4.00;99.90;;;;;;5073486;28;20284;-91
2022/11/19 13:16:08;;;;;;;1.97;1.27;;;4.00;99.90;;;;;;5058903;28;20276;-92
2022/11/19 13:18:36;;;;;;;0.93;0.93;;;4.00;99.90;;;;;;5058494;28;20234;-91
2022/11/19 13:21:07;;;;;;;2.23;0.97;;;4.10;99.90;;;;;;5058982;28;20218;-94
2022/11/19 13:23:45;;;;;;;1.30;1.20;;;4.00;99.90;;;;;;5056243;28;21042;-94
2022/11/19 13:26:22;;;;;;;1.23;0.80;;;4.00;99.90;;;;;;5074095;28;20545;-93
2022/11/19 13:28:56;;;;;;;0.57;0.57;;;4.00;99.90;;;;;;5056518;28;20233;-93
2022/11/19 13:31:21;;;;;;;1.07;1.07;;;4.00;99.90;;;;;;5059738;28;20170;-93
2022/11/19 13:34:00;;;;;;;1.20;1.10;;;4.10;99.90;;;;;;5073197;28;20223;-93
2022/11/19 13:36:36;;;;;;;1.77;1.23;;;4.10;99.90;;;;;;5072992;28;20216;-93
2022/11/19 13:39:31;;;;;;;0.67;0.67;;;4.00;99.90;;;;;;5071392;28;20316;-93
2022/11/19 13:44:44;;;;;;;0.83;0.83;;;4.10;99.90;;;;;;5054547;28;20213;-92
2022/11/19 13:47:18;;;;;;;2.37;2.13;;;4.10;99.90;;;;;;5057444;28;20271;-93
2022/11/19 13:50:03;;;;;;;0.97;0.70;;;4.10;99.90;;;;;;5070713;28;20217;-91